sensor_id;sensor_type;location;lat;lon;timestamp;temperature;humidity
10530;DHT22;5313;48.834;9.228;2023-01-26T00:00:48;1.60;99.90
10530;DHT22;5313;48.834;9.228;2023-01-26T00:03:14;1.60;99.90
10530;DHT22;5313;48.834;9.228;2023-01-26T00:05:40;1.50;99.90
10530;DHT22;5313;48.834;9.228;2023-01-26T00:08:06;1.40;99.90
10530;DHT22;5313;48.834;9.228;2023-01-26T00:10:34;1.40;99.90
10530;DHT22;5313;48.834;9.228;2023-01-26T00:13:00;1.40;99.90
10530;DHT22;5313;48.834;9.228;2023-01-26T00:15:26;1.40;99.90
10530;DHT22;5313;48.834;9.228;2023-01-26T00:17:51;1.40;99.90
10530;DHT22;5313;48.834;9.228;2023-01-26T00:20:17;1.40;99.90
10530;DHT22;5313;48.834;9.228;2023-01-26T00:22:43;1.40;99.90
10530;DHT22;5313;48.834;9.228;2023-01-26T00:25:09;1.30;99.90
10530;DHT22;5313;48.834;9.228;2023-01-26T00:27:34;1.30;99.90
10530;DHT22;5313;48.834;9.228;2023-01-26T00:30:00;1.40;99.90
10530;DHT22;5313;48.834;9.228;2023-01-26T00:32:26;1.40;99.90
10530;DHT22;5313;48.834;9.228;2023-01-26T00:34:51;1.40;99.90
10530;DHT22;5313;48.834;9.228;2023-01-26T00:37:17;1.30;99.90
10530;DHT22;5313;48.834;9.228;2023-01-26T00:39:42;1.30;99.90
10530;DHT22;5313;48.834;9.228;2023-01-26T00:42:08;1.30;99.90
10530;DHT22;5313;48.834;9.228;2023-01-26T00:44:39;1.30;99.90
10530;DHT22;5313;48.834;9.228;2023-01-26T00:47:05;1.20;99.90
10530;DHT22;5313;48.834;9.228;2023-01-26T00:49:31;1.10;99.90
10530;DHT22;5313;48.834;9.228;2023-01-26T00:51:57;1.10;99.90
10530;DHT22;5313;48.834;9.228;2023-01-26T00:54:22;1.10;99.90
10530;DHT22;5313;48.834;9.228;2023-01-26T00:56:48;1.00;99.90
10530;DHT22;5313;48.834;9.228;2023-01-26T00:59:13;1.00;99.90
10530;DHT22;5313;48.834;9.228;2023-01-26T01:01:39;-0.40;99.90
10530;DHT22;5313;48.834;9.228;2023-01-26T01:04:04;1.00;99.90
10530;DHT22;5313;48.834;9.228;2023-01-26T01:06:30;1.00;99.90
10530;DHT22;5313;48.834;9.228;2023-01-26T01:08:55;1.10;99.90
10530;DHT22;5313;48.834;9.228;2023-01-26T01:11:21;1.10;99.90
10530;DHT22;5313;48.834;9.228;2023-01-26T01:13:46;1.10;99.90
10530;DHT22;5313;48.834;9.228;2023-01-26T01:16:13;1.00;99.90
10530;DHT22;5313;48.834;9.228;2023-01-26T01:18:39;1.00;99.90
10530;DHT22;5313;48.834;9.228;2023-01-26T01:21:10;1.00;99.90
10530;DHT22;5313;48.834;9.228;2023-01-26T01:23:36;0.90;99.90
10530;DHT22;5313;48.834;9.228;2023-01-26T01:26:03;1.00;99.90
10530;DHT22;5313;48.834;9.228;2023-01-26T01:28:29;0.90;99.90
10530;DHT22;5313;48.834;9.228;2023-01-26T01:30:55;0.90;99.90
10530;DHT22;5313;48.834;9.228;2023-01-26T01:33:22;0.90;99.90
10530;DHT22;5313;48.834;9.228;2023-01-26T01:35:59;0.80;99.90
10530;DHT22;5313;48.834;9.228;2023-01-26T01:38:25;0.90;99.90
10530;DHT22;5313;48.834;9.228;2023-01-26T01:40:52;0.90;99.90
10530;DHT22;5313;48.834;9.228;2023-01-26T01:43:17;0.80;99.90
10530;DHT22;5313;48.834;9.228;2023-01-26T01:45:47;0.90;99.90
10530;DHT22;5313;48.834;9.228;2023-01-26T01:48:30;0.90;99.90
10530;DHT22;5313;48.834;9.228;2023-01-26T01:51:04;0.90;99.90
10530;DHT22;5313;48.834;9.228;2023-01-26T01:53:35;0.90;99.90
10530;DHT22;5313;48.834;9.228;2023-01-26T01:56:06;0.90;99.90
10530;DHT22;5313;48.834;9.228;2023-01-26T01:58:36;0.80;99.90
10530;DHT22;5313;48.834;9.228;2023-01-26T02:01:03;0.80;99.90
10530;DHT22;5313;48.834;9.228;2023-01-26T02:03:30;0.90;99.90
10530;DHT22;5313;48.834;9.228;2023-01-26T02:06:13;0.80;99.90
10530;DHT22;5313;48.834;9.228;2023-01-26T02:08:46;0.80;99.90
10530;DHT22;5313;48.834;9.228;2023-01-26T02:11:19;0.80;99.90
10530;DHT22;5313;48.834;9.228;2023-01-26T02:13:47;0.80;99.90
10530;DHT22;5313;48.834;9.228;2023-01-26T02:16:14;0.80;99.90
10530;DHT22;5313;48.834;9.228;2023-01-26T02:18:39;0.80;99.90
10530;DHT22;5313;48.834;9.228;2023-01-26T02:21:07;0.80;99.90
10530;DHT22;5313;48.834;9.228;2023-01-26T02:23:40;0.80;99.90
10530;DHT22;5313;48.834;9.228;2023-01-26T02:26:12;0.70;99.90
10530;DHT22;5313;48.834;9.228;2023-01-26T02:28:39;0.70;99.90
10530;DHT22;5313;48.834;9.228;2023-01-26T02:31:05;0.80;99.90
10530;DHT22;5313;48.834;9.228;2023-01-26T02:33:32;0.80;99.90
10530;DHT22;5313;48.834;9.228;2023-01-26T02:35:59;0.70;99.90
10530;DHT22;5313;48.834;9.228;2023-01-26T02:38:29;0.70;99.90
10530;DHT22;5313;48.834;9.228;2023-01-26T02:41:03;0.70;99.90
10530;DHT22;5313;48.834;9.228;2023-01-26T02:43:30;0.70;99.90
10530;DHT22;5313;48.834;9.228;2023-01-26T02:45:56;0.70;99.90
10530;DHT22;5313;48.834;9.228;2023-01-26T02:48:22;0.80;99.90
10530;DHT22;5313;48.834;9.228;2023-01-26T02:51:06;0.70;99.90
10530;DHT22;5313;48.834;9.228;2023-01-26T02:53:32;0.80;99.90
10530;DHT22;5313;48.834;9.228;2023-01-26T02:55:57;0.70;99.90
10530;DHT22;5313;48.834;9.228;2023-01-26T02:58:23;0.80;99.90
10530;DHT22;5313;48.834;9.228;2023-01-26T03:00:48;0.70;99.90
10530;DHT22;5313;48.834;9.228;2023-01-26T03:03:17;0.80;99.90
10530;DHT22;5313;48.834;9.228;2023-01-26T03:05:43;0.70;99.90
10530;DHT22;5313;48.834;9.228;2023-01-26T03:08:09;0.70;99.90
10530;DHT22;5313;48.834;9.228;2023-01-26T03:10:35;0.60;99.90
10530;DHT22;5313;48.834;9.228;2023-01-26T03:13:01;0.70;99.90
10530;DHT22;5313;48.834;9.228;2023-01-26T03:15:26;0.70;99.90
10530;DHT22;5313;48.834;9.228;2023-01-26T03:18:17;0.60;99.90
10530;DHT22;5313;48.834;9.228;2023-01-26T03:21:08;0.70;99.90
10530;DHT22;5313;48.834;9.228;2023-01-26T03:23:52;0.60;99.90
10530;DHT22;5313;48.834;9.228;2023-01-26T03:26:36;0.70;99.90
10530;DHT22;5313;48.834;9.228;2023-01-26T03:29:20;0.60;99.90
10530;DHT22;5313;48.834;9.228;2023-01-26T03:31:46;0.60;99.90
10530;DHT22;5313;48.834;9.228;2023-01-26T03:34:12;0.60;99.90
10530;DHT22;5313;48.834;9.228;2023-01-26T03:36:37;0.60;99.90
10530;DHT22;5313;48.834;9.228;2023-01-26T03:39:03;0.60;99.90
10530;DHT22;5313;48.834;9.228;2023-01-26T03:41:29;0.60;99.90
10530;DHT22;5313;48.834;9.228;2023-01-26T03:44:13;0.70;99.90
10530;DHT22;5313;48.834;9.228;2023-01-26T03:46:57;0.70;99.90
10530;DHT22;5313;48.834;9.228;2023-01-26T03:49:41;0.70;99.90
10530;DHT22;5313;48.834;9.228;2023-01-26T03:52:25;0.70;99.90
10530;DHT22;5313;48.834;9.228;2023-01-26T03:55:09;0.60;99.90
10530;DHT22;5313;48.834;9.228;2023-01-26T03:57:54;0.60;99.90
10530;DHT22;5313;48.834;9.228;2023-01-26T04:00:19;0.60;99.90
10530;DHT22;5313;48.834;9.228;2023-01-26T04:02:46;0.60;99.90
10530;DHT22;5313;48.834;9.228;2023-01-26T04:05:30;0.70;99.90
10530;DHT22;5313;48.834;9.228;2023-01-26T04:08:14;0.70;99.90
10530;DHT22;5313;48.834;9.228;2023-01-26T04:10:54;0.60;99.90
10530;DHT22;5313;48.834;9.228;2023-01-26T04:13:22;0.60;99.90
10530;DHT22;5313;48.834;9.228;2023-01-26T04:16:08;0.60;99.90
10530;DHT22;5313;48.834;9.228;2023-01-26T04:18:53;0.60;99.90
10530;DHT22;5313;48.834;9.228;2023-01-26T04:21:37;0.60;99.90
10530;DHT22;5313;48.834;9.228;2023-01-26T04:24:04;0.60;99.90
10530;DHT22;5313;48.834;9.228;2023-01-26T04:26:34;0.50;99.90
10530;DHT22;5313;48.834;9.228;2023-01-26T04:29:11;0.40;99.90
10530;DHT22;5313;48.834;9.228;2023-01-26T04:31:39;0.40;99.90
10530;DHT22;5313;48.834;9.228;2023-01-26T04:34:05;0.40;99.90
10530;DHT22;5313;48.834;9.228;2023-01-26T04:36:31;0.40;99.90
10530;DHT22;5313;48.834;9.228;2023-01-26T04:38:57;0.40;99.90
10530;DHT22;5313;48.834;9.228;2023-01-26T04:41:23;0.40;99.90
10530;DHT22;5313;48.834;9.228;2023-01-26T04:43:49;0.40;99.90
10530;DHT22;5313;48.834;9.228;2023-01-26T04:46:15;0.40;99.90
10530;DHT22;5313;48.834;9.228;2023-01-26T04:48:41;0.30;99.90
10530;DHT22;5313;48.834;9.228;2023-01-26T04:51:17;0.30;99.90
10530;DHT22;5313;48.834;9.228;2023-01-26T04:53:47;0.30;99.90
10530;DHT22;5313;48.834;9.228;2023-01-26T04:56:24;0.40;99.90
10530;DHT22;5313;48.834;9.228;2023-01-26T04:58:51;0.40;99.90
10530;DHT22;5313;48.834;9.228;2023-01-26T05:01:17;0.40;99.90
10530;DHT22;5313;48.834;9.228;2023-01-26T05:03:43;0.40;99.90
10530;DHT22;5313;48.834;9.228;2023-01-26T05:06:09;0.30;99.90
10530;DHT22;5313;48.834;9.228;2023-01-26T05:08:36;0.30;99.90
10530;DHT22;5313;48.834;9.228;2023-01-26T05:11:02;0.30;99.90
10530;DHT22;5313;48.834;9.228;2023-01-26T05:13:27;0.20;99.90
10530;DHT22;5313;48.834;9.228;2023-01-26T05:15:53;0.20;99.90
10530;DHT22;5313;48.834;9.228;2023-01-26T05:18:18;0.30;99.90
10530;DHT22;5313;48.834;9.228;2023-01-26T05:20:44;0.30;99.90
10530;DHT22;5313;48.834;9.228;2023-01-26T05:23:09;0.20;99.90
10530;DHT22;5313;48.834;9.228;2023-01-26T05:25:35;0.30;99.90
10530;DHT22;5313;48.834;9.228;2023-01-26T05:28:00;0.30;99.90
10530;DHT22;5313;48.834;9.228;2023-01-26T05:30:26;0.20;99.90
10530;DHT22;5313;48.834;9.228;2023-01-26T05:32:52;0.20;99.90
10530;DHT22;5313;48.834;9.228;2023-01-26T05:35:17;0.20;99.90
10530;DHT22;5313;48.834;9.228;2023-01-26T05:37:43;0.20;99.90
10530;DHT22;5313;48.834;9.228;2023-01-26T05:40:10;0.20;99.90
10530;DHT22;5313;48.834;9.228;2023-01-26T05:42:36;0.20;99.90
10530;DHT22;5313;48.834;9.228;2023-01-26T05:45:03;0.10;99.90
10530;DHT22;5313;48.834;9.228;2023-01-26T05:47:28;0.10;99.90
10530;DHT22;5313;48.834;9.228;2023-01-26T05:49:54;0.10;99.90
10530;DHT22;5313;48.834;9.228;2023-01-26T05:52:20;0.10;99.90
10530;DHT22;5313;48.834;9.228;2023-01-26T05:54:46;0.10;99.90
10530;DHT22;5313;48.834;9.228;2023-01-26T05:57:13;0.10;99.90
10530;DHT22;5313;48.834;9.228;2023-01-26T05:59:38;0.20;99.90
10530;DHT22;5313;48.834;9.228;2023-01-26T06:02:04;0.10;99.90
10530;DHT22;5313;48.834;9.228;2023-01-26T06:04:30;0.10;99.90
10530;DHT22;5313;48.834;9.228;2023-01-26T06:06:57;0.10;99.90
10530;DHT22;5313;48.834;9.228;2023-01-26T06:09:24;0.10;99.90
10530;DHT22;5313;48.834;9.228;2023-01-26T06:11:49;0.10;99.90
10530;DHT22;5313;48.834;9.228;2023-01-26T06:14:15;0.00;99.90
10530;DHT22;5313;48.834;9.228;2023-01-26T06:16:41;0.10;99.90
10530;DHT22;5313;48.834;9.228;2023-01-26T06:19:08;0.10;99.90
10530;DHT22;5313;48.834;9.228;2023-01-26T06:21:34;0.00;99.90
10530;DHT22;5313;48.834;9.228;2023-01-26T06:24:00;0.10;99.90
10530;DHT22;5313;48.834;9.228;2023-01-26T06:26:26;0.10;99.90
10530;DHT22;5313;48.834;9.228;2023-01-26T06:28:52;0.20;99.90
10530;DHT22;5313;48.834;9.228;2023-01-26T06:31:18;0.20;99.90
10530;DHT22;5313;48.834;9.228;2023-01-26T06:33:44;0.20;99.90
10530;DHT22;5313;48.834;9.228;2023-01-26T06:36:11;0.20;99.90
10530;DHT22;5313;48.834;9.228;2023-01-26T06:38:38;0.20;99.90
10530;DHT22;5313;48.834;9.228;2023-01-26T06:41:06;0.20;99.90
10530;DHT22;5313;48.834;9.228;2023-01-26T06:43:33;0.10;99.90
10530;DHT22;5313;48.834;9.228;2023-01-26T06:45:59;0.10;99.90
10530;DHT22;5313;48.834;9.228;2023-01-26T06:48:26;0.20;99.90
10530;DHT22;5313;48.834;9.228;2023-01-26T06:50:55;0.20;99.90
10530;DHT22;5313;48.834;9.228;2023-01-26T06:53:28;0.20;99.90
10530;DHT22;5313;48.834;9.228;2023-01-26T06:55:54;0.20;99.90
10530;DHT22;5313;48.834;9.228;2023-01-26T06:58:20;0.20;99.90
10530;DHT22;5313;48.834;9.228;2023-01-26T07:00:45;0.20;99.90
10530;DHT22;5313;48.834;9.228;2023-01-26T07:03:11;0.20;99.90
10530;DHT22;5313;48.834;9.228;2023-01-26T07:05:37;0.20;99.90
10530;DHT22;5313;48.834;9.228;2023-01-26T07:08:02;0.10;99.90
10530;DHT22;5313;48.834;9.228;2023-01-26T07:10:30;0.00;99.90
10530;DHT22;5313;48.834;9.228;2023-01-26T07:12:56;0.00;99.90
10530;DHT22;5313;48.834;9.228;2023-01-26T07:15:21;0.20;99.90
10530;DHT22;5313;48.834;9.228;2023-01-26T07:17:47;0.20;99.90
10530;DHT22;5313;48.834;9.228;2023-01-26T07:20:12;0.20;99.90
10530;DHT22;5313;48.834;9.228;2023-01-26T07:22:38;0.30;99.90
10530;DHT22;5313;48.834;9.228;2023-01-26T07:25:04;0.20;99.90
10530;DHT22;5313;48.834;9.228;2023-01-26T07:27:29;0.10;99.90
10530;DHT22;5313;48.834;9.228;2023-01-26T07:29:55;0.10;99.90
10530;DHT22;5313;48.834;9.228;2023-01-26T07:32:21;0.10;99.90
10530;DHT22;5313;48.834;9.228;2023-01-26T07:34:46;0.00;99.90
10530;DHT22;5313;48.834;9.228;2023-01-26T07:37:13;0.00;99.90
10530;DHT22;5313;48.834;9.228;2023-01-26T07:39:39;0.00;99.90
10530;DHT22;5313;48.834;9.228;2023-01-26T07:42:04;0.10;99.90
10530;DHT22;5313;48.834;9.228;2023-01-26T07:44:30;0.10;99.90
10530;DHT22;5313;48.834;9.228;2023-01-26T07:46:56;0.10;99.90
10530;DHT22;5313;48.834;9.228;2023-01-26T07:49:22;0.00;99.90
10530;DHT22;5313;48.834;9.228;2023-01-26T07:51:47;0.00;99.90
10530;DHT22;5313;48.834;9.228;2023-01-26T07:54:13;0.00;99.90
10530;DHT22;5313;48.834;9.228;2023-01-26T07:56:38;0.00;99.90
10530;DHT22;5313;48.834;9.228;2023-01-26T07:59:04;0.10;99.90
10530;DHT22;5313;48.834;9.228;2023-01-26T08:01:29;0.00;99.90
10530;DHT22;5313;48.834;9.228;2023-01-26T08:03:55;0.10;99.90
10530;DHT22;5313;48.834;9.228;2023-01-26T08:06:21;0.10;99.90
10530;DHT22;5313;48.834;9.228;2023-01-26T08:08:47;0.10;99.90
10530;DHT22;5313;48.834;9.228;2023-01-26T08:11:16;0.10;99.90
10530;DHT22;5313;48.834;9.228;2023-01-26T08:13:42;0.10;99.90
10530;DHT22;5313;48.834;9.228;2023-01-26T08:16:09;0.10;99.90
10530;DHT22;5313;48.834;9.228;2023-01-26T08:18:37;0.20;99.90
10530;DHT22;5313;48.834;9.228;2023-01-26T08:21:03;0.20;99.90
10530;DHT22;5313;48.834;9.228;2023-01-26T08:23:29;0.30;99.90
10530;DHT22;5313;48.834;9.228;2023-01-26T08:26:03;0.20;99.90
10530;DHT22;5313;48.834;9.228;2023-01-26T08:28:28;0.30;99.90
10530;DHT22;5313;48.834;9.228;2023-01-26T08:30:54;0.40;99.90
10530;DHT22;5313;48.834;9.228;2023-01-26T08:33:20;0.50;99.90
10530;DHT22;5313;48.834;9.228;2023-01-26T08:35:46;0.50;99.90
10530;DHT22;5313;48.834;9.228;2023-01-26T08:38:11;0.60;99.90
10530;DHT22;5313;48.834;9.228;2023-01-26T08:40:37;0.60;99.90
10530;DHT22;5313;48.834;9.228;2023-01-26T08:43:03;0.60;99.90
10530;DHT22;5313;48.834;9.228;2023-01-26T08:45:29;0.60;99.90
10530;DHT22;5313;48.834;9.228;2023-01-26T08:47:55;0.60;99.90
10530;DHT22;5313;48.834;9.228;2023-01-26T08:50:21;0.60;99.90
10530;DHT22;5313;48.834;9.228;2023-01-26T08:52:46;0.50;99.90
10530;DHT22;5313;48.834;9.228;2023-01-26T08:55:12;0.50;99.90
10530;DHT22;5313;48.834;9.228;2023-01-26T08:57:38;0.40;99.90
10530;DHT22;5313;48.834;9.228;2023-01-26T09:00:04;0.40;99.90
10530;DHT22;5313;48.834;9.228;2023-01-26T09:02:29;0.30;99.90
10530;DHT22;5313;48.834;9.228;2023-01-26T09:04:55;0.30;99.90
10530;DHT22;5313;48.834;9.228;2023-01-26T09:07:20;0.40;99.90
10530;DHT22;5313;48.834;9.228;2023-01-26T09:09:46;0.50;99.90
10530;DHT22;5313;48.834;9.228;2023-01-26T09:12:11;0.40;99.90
10530;DHT22;5313;48.834;9.228;2023-01-26T09:14:37;0.40;99.90
10530;DHT22;5313;48.834;9.228;2023-01-26T09:17:02;0.40;99.90
10530;DHT22;5313;48.834;9.228;2023-01-26T09:19:28;0.40;99.90
10530;DHT22;5313;48.834;9.228;2023-01-26T09:21:54;0.40;99.90
10530;DHT22;5313;48.834;9.228;2023-01-26T09:24:20;0.40;99.90
10530;DHT22;5313;48.834;9.228;2023-01-26T09:26:46;0.40;99.90
10530;DHT22;5313;48.834;9.228;2023-01-26T09:29:12;0.40;99.90
10530;DHT22;5313;48.834;9.228;2023-01-26T09:31:37;0.40;99.90
10530;DHT22;5313;48.834;9.228;2023-01-26T09:34:04;0.50;99.90
10530;DHT22;5313;48.834;9.228;2023-01-26T09:36:30;0.50;99.90
10530;DHT22;5313;48.834;9.228;2023-01-26T09:38:55;0.40;99.90
10530;DHT22;5313;48.834;9.228;2023-01-26T09:44:32;0.40;99.90
10530;DHT22;5313;48.834;9.228;2023-01-26T09:47:12;0.40;99.90
10530;DHT22;5313;48.834;9.228;2023-01-26T09:49:47;0.50;99.90
10530;DHT22;5313;48.834;9.228;2023-01-26T09:54:54;0.50;99.90
10530;DHT22;5313;48.834;9.228;2023-01-26T09:57:28;0.60;99.90
10530;DHT22;5313;48.834;9.228;2023-01-26T10:00:02;0.60;99.90
10530;DHT22;5313;48.834;9.228;2023-01-26T10:02:41;0.70;99.90
10530;DHT22;5313;48.834;9.228;2023-01-26T10:05:29;0.60;99.90
10530;DHT22;5313;48.834;9.228;2023-01-26T10:07:57;0.70;99.90
10530;DHT22;5313;48.834;9.228;2023-01-26T10:10:29;0.50;99.90
10530;DHT22;5313;48.834;9.228;2023-01-26T10:12:55;0.50;99.90
10530;DHT22;5313;48.834;9.228;2023-01-26T10:15:27;0.50;99.90
10530;DHT22;5313;48.834;9.228;2023-01-26T10:17:55;0.60;99.90
10530;DHT22;5313;48.834;9.228;2023-01-26T10:20:42;0.60;99.90
10530;DHT22;5313;48.834;9.228;2023-01-26T10:23:30;0.50;99.90
10530;DHT22;5313;48.834;9.228;2023-01-26T10:26:20;0.60;99.90
10530;DHT22;5313;48.834;9.228;2023-01-26T10:28:48;0.50;99.90
10530;DHT22;5313;48.834;9.228;2023-01-26T10:31:21;0.40;99.90
10530;DHT22;5313;48.834;9.228;2023-01-26T10:34:08;0.30;99.90
10530;DHT22;5313;48.834;9.228;2023-01-26T10:36:34;0.30;99.90
10530;DHT22;5313;48.834;9.228;2023-01-26T10:39:06;0.30;99.90
10530;DHT22;5313;48.834;9.228;2023-01-26T10:41:32;0.30;99.90
10530;DHT22;5313;48.834;9.228;2023-01-26T10:44:01;0.40;99.90
10530;DHT22;5313;48.834;9.228;2023-01-26T10:46:35;0.40;99.90
10530;DHT22;5313;48.834;9.228;2023-01-26T10:49:21;0.30;99.90
10530;DHT22;5313;48.834;9.228;2023-01-26T10:52:25;0.30;99.90
10530;DHT22;5313;48.834;9.228;2023-01-26T10:55:19;0.40;99.90
10530;DHT22;5313;48.834;9.228;2023-01-26T10:57:45;0.40;99.90
10530;DHT22;5313;48.834;9.228;2023-01-26T11:02:55;0.40;99.90
10530;DHT22;5313;48.834;9.228;2023-01-26T11:05:24;0.40;99.90
10530;DHT22;5313;48.834;9.228;2023-01-26T11:07:52;0.40;99.90
10530;DHT22;5313;48.834;9.228;2023-01-26T11:10:39;0.40;99.90
10530;DHT22;5313;48.834;9.228;2023-01-26T11:13:20;0.40;99.90
10530;DHT22;5313;48.834;9.228;2023-01-26T11:15:50;0.40;99.90
10530;DHT22;5313;48.834;9.228;2023-01-26T11:21:12;0.30;99.90
10530;DHT22;5313;48.834;9.228;2023-01-26T11:29:40;0.40;99.90
10530;DHT22;5313;48.834;9.228;2023-01-26T11:32:45;0.50;99.90
10530;DHT22;5313;48.834;9.228;2023-01-26T11:35:29;0.50;99.90
10530;DHT22;5313;48.834;9.228;2023-01-26T11:38:03;0.50;99.90
10530;DHT22;5313;48.834;9.228;2023-01-26T11:40:37;0.50;99.90
10530;DHT22;5313;48.834;9.228;2023-01-26T11:46:46;0.40;99.90
10530;DHT22;5313;48.834;9.228;2023-01-26T11:49:22;0.30;99.90
10530;DHT22;5313;48.834;9.228;2023-01-26T11:57:16;0.30;99.90
10530;DHT22;5313;48.834;9.228;2023-01-26T11:59:56;0.20;99.90
10530;DHT22;5313;48.834;9.228;2023-01-26T12:02:31;0.20;99.90
10530;DHT22;5313;48.834;9.228;2023-01-26T12:05:02;0.20;99.90
10530;DHT22;5313;48.834;9.228;2023-01-26T12:07:41;0.20;99.90
10530;DHT22;5313;48.834;9.228;2023-01-26T12:10:28;0.20;99.90
10530;DHT22;5313;48.834;9.228;2023-01-26T12:15:33;0.10;99.90
10530;DHT22;5313;48.834;9.228;2023-01-26T12:20:57;0.20;99.90
10530;DHT22;5313;48.834;9.228;2023-01-26T12:23:49;0.20;99.90
10530;DHT22;5313;48.834;9.228;2023-01-26T12:26:19;0.20;99.90
10530;DHT22;5313;48.834;9.228;2023-01-26T12:29:13;0.20;99.90
10530;DHT22;5313;48.834;9.228;2023-01-26T12:32:09;0.10;99.90
10530;DHT22;5313;48.834;9.228;2023-01-26T12:34:35;0.10;99.90
10530;DHT22;5313;48.834;9.228;2023-01-26T12:40:22;0.10;99.90
10530;DHT22;5313;48.834;9.228;2023-01-26T12:45:41;0.10;99.90
10530;DHT22;5313;48.834;9.228;2023-01-26T12:48:24;0.20;99.90
10530;DHT22;5313;48.834;9.228;2023-01-26T12:51:06;0.20;99.90
10530;DHT22;5313;48.834;9.228;2023-01-26T12:53:58;0.40;99.90
10530;DHT22;5313;48.834;9.228;2023-01-26T12:56:50;0.40;99.90
10530;DHT22;5313;48.834;9.228;2023-01-26T12:59:31;0.50;99.90
10530;DHT22;5313;48.834;9.228;2023-01-26T13:01:57;0.50;99.90
10530;DHT22;5313;48.834;9.228;2023-01-26T13:04:23;0.50;99.90
10530;DHT22;5313;48.834;9.228;2023-01-26T13:07:02;0.40;99.90
10530;DHT22;5313;48.834;9.228;2023-01-26T13:09:28;0.30;99.90
10530;DHT22;5313;48.834;9.228;2023-01-26T13:11:57;0.20;99.90
10530;DHT22;5313;48.834;9.228;2023-01-26T13:27:40;0.30;99.90
10530;DHT22;5313;48.834;9.228;2023-01-26T13:33:08;0.30;99.90
10530;DHT22;5313;48.834;9.228;2023-01-26T13:35:35;0.20;99.90
10530;DHT22;5313;48.834;9.228;2023-01-26T13:38:25;0.20;99.90
10530;DHT22;5313;48.834;9.228;2023-01-26T13:40:52;0.30;99.90
10530;DHT22;5313;48.834;9.228;2023-01-26T13:43:39;0.40;99.90
10530;DHT22;5313;48.834;9.228;2023-01-26T13:49:00;0.30;99.90
10530;DHT22;5313;48.834;9.228;2023-01-26T13:51:31;0.40;99.90
10530;DHT22;5313;48.834;9.228;2023-01-26T13:56:34;0.30;99.90
10530;DHT22;5313;48.834;9.228;2023-01-26T14:01:49;0.40;99.90
10530;DHT22;5313;48.834;9.228;2023-01-26T14:04:18;0.60;99.90
10530;DHT22;5313;48.834;9.228;2023-01-26T14:09:32;0.60;99.90
10530;DHT22;5313;48.834;9.228;2023-01-26T14:12:04;0.50;99.90
10530;DHT22;5313;48.834;9.228;2023-01-26T14:14:35;0.50;99.90
10530;DHT22;5313;48.834;9.228;2023-01-26T14:17:06;0.50;99.90
10530;DHT22;5313;48.834;9.228;2023-01-26T14:19:39;0.50;99.90
10530;DHT22;5313;48.834;9.228;2023-01-26T14:22:10;0.50;99.90
10530;DHT22;5313;48.834;9.228;2023-01-26T14:24:37;0.50;99.90
10530;DHT22;5313;48.834;9.228;2023-01-26T14:27:27;0.50;99.90
10530;DHT22;5313;48.834;9.228;2023-01-26T14:29:51;0.50;99.90
10530;DHT22;5313;48.834;9.228;2023-01-26T14:32:17;0.50;99.90
10530;DHT22;5313;48.834;9.228;2023-01-26T14:34:54;0.50;99.90
10530;DHT22;5313;48.834;9.228;2023-01-26T14:37:20;0.40;99.90
10530;DHT22;5313;48.834;9.228;2023-01-26T14:39:46;0.40;99.90
10530;DHT22;5313;48.834;9.228;2023-01-26T14:42:14;0.50;99.90
10530;DHT22;5313;48.834;9.228;2023-01-26T14:44:41;0.50;99.90
10530;DHT22;5313;48.834;9.228;2023-01-26T14:47:27;0.40;99.90
10530;DHT22;5313;48.834;9.228;2023-01-26T14:49:58;0.30;99.90
10530;DHT22;5313;48.834;9.228;2023-01-26T14:52:27;0.30;99.90
10530;DHT22;5313;48.834;9.228;2023-01-26T14:55:06;0.30;99.90
10530;DHT22;5313;48.834;9.228;2023-01-26T14:57:33;0.30;99.90
10530;DHT22;5313;48.834;9.228;2023-01-26T15:00:00;0.40;99.90
10530;DHT22;5313;48.834;9.228;2023-01-26T15:02:42;0.60;99.90
10530;DHT22;5313;48.834;9.228;2023-01-26T15:05:13;0.50;99.90
10530;DHT22;5313;48.834;9.228;2023-01-26T15:07:47;0.50;99.90
10530;DHT22;5313;48.834;9.228;2023-01-26T15:10:38;0.50;99.90
10530;DHT22;5313;48.834;9.228;2023-01-26T15:13:20;0.50;99.90
10530;DHT22;5313;48.834;9.228;2023-01-26T15:16:49;0.50;99.90
10530;DHT22;5313;48.834;9.228;2023-01-26T15:18:33;0.50;99.90
10530;DHT22;5313;48.834;9.228;2023-01-26T15:23:31;0.30;99.90
10530;DHT22;5313;48.834;9.228;2023-01-26T15:28:31;0.50;99.90
10530;DHT22;5313;48.834;9.228;2023-01-26T15:30:57;0.50;99.90
10530;DHT22;5313;48.834;9.228;2023-01-26T15:33:46;0.50;99.90
10530;DHT22;5313;48.834;9.228;2023-01-26T15:36:52;0.50;99.90
10530;DHT22;5313;48.834;9.228;2023-01-26T15:39:19;0.60;99.90
10530;DHT22;5313;48.834;9.228;2023-01-26T15:42:13;0.60;99.90
10530;DHT22;5313;48.834;9.228;2023-01-26T15:44:39;0.50;99.90
10530;DHT22;5313;48.834;9.228;2023-01-26T15:47:07;0.50;99.90
10530;DHT22;5313;48.834;9.228;2023-01-26T15:49:32;0.50;99.90
10530;DHT22;5313;48.834;9.228;2023-01-26T15:51:58;0.50;99.90
10530;DHT22;5313;48.834;9.228;2023-01-26T15:54:23;0.40;99.90
10530;DHT22;5313;48.834;9.228;2023-01-26T15:56:49;0.40;99.90
10530;DHT22;5313;48.834;9.228;2023-01-26T15:59:14;0.40;99.90
10530;DHT22;5313;48.834;9.228;2023-01-26T16:01:40;0.40;99.90
10530;DHT22;5313;48.834;9.228;2023-01-26T16:04:07;0.40;99.90
10530;DHT22;5313;48.834;9.228;2023-01-26T16:06:33;0.30;99.90
10530;DHT22;5313;48.834;9.228;2023-01-26T16:08:59;0.40;99.90
10530;DHT22;5313;48.834;9.228;2023-01-26T16:11:30;0.40;99.90
10530;DHT22;5313;48.834;9.228;2023-01-26T16:13:57;0.40;99.90
10530;DHT22;5313;48.834;9.228;2023-01-26T16:16:23;0.40;99.90
10530;DHT22;5313;48.834;9.228;2023-01-26T16:18:52;0.50;99.90
10530;DHT22;5313;48.834;9.228;2023-01-26T16:21:21;0.50;99.90
10530;DHT22;5313;48.834;9.228;2023-01-26T16:23:48;0.50;99.90
10530;DHT22;5313;48.834;9.228;2023-01-26T16:26:16;0.40;99.90
10530;DHT22;5313;48.834;9.228;2023-01-26T16:28:42;0.50;99.90
10530;DHT22;5313;48.834;9.228;2023-01-26T16:31:17;0.60;99.90
10530;DHT22;5313;48.834;9.228;2023-01-26T16:33:44;0.60;99.90
10530;DHT22;5313;48.834;9.228;2023-01-26T16:36:12;0.50;99.90
10530;DHT22;5313;48.834;9.228;2023-01-26T16:38:38;0.40;99.90
10530;DHT22;5313;48.834;9.228;2023-01-26T16:41:04;0.30;99.90
10530;DHT22;5313;48.834;9.228;2023-01-26T16:43:30;0.40;99.90
10530;DHT22;5313;48.834;9.228;2023-01-26T16:45:56;0.50;99.90
10530;DHT22;5313;48.834;9.228;2023-01-26T16:48:22;0.50;99.90
10530;DHT22;5313;48.834;9.228;2023-01-26T16:50:52;0.40;99.90
10530;DHT22;5313;48.834;9.228;2023-01-26T16:53:30;0.50;99.90
10530;DHT22;5313;48.834;9.228;2023-01-26T16:56:00;0.50;99.90
10530;DHT22;5313;48.834;9.228;2023-01-26T16:58:26;0.50;99.90
10530;DHT22;5313;48.834;9.228;2023-01-26T17:00:53;0.40;99.90
10530;DHT22;5313;48.834;9.228;2023-01-26T17:03:19;0.40;99.90
10530;DHT22;5313;48.834;9.228;2023-01-26T17:05:44;0.40;99.90
10530;DHT22;5313;48.834;9.228;2023-01-26T17:08:10;0.40;99.90
10530;DHT22;5313;48.834;9.228;2023-01-26T17:10:36;0.40;99.90
10530;DHT22;5313;48.834;9.228;2023-01-26T17:13:02;0.30;99.90
10530;DHT22;5313;48.834;9.228;2023-01-26T17:15:28;0.40;99.90
10530;DHT22;5313;48.834;9.228;2023-01-26T17:17:53;0.30;99.90
10530;DHT22;5313;48.834;9.228;2023-01-26T17:20:19;0.40;99.90
10530;DHT22;5313;48.834;9.228;2023-01-26T17:22:45;0.20;99.90
10530;DHT22;5313;48.834;9.228;2023-01-26T17:25:11;0.10;99.90
10530;DHT22;5313;48.834;9.228;2023-01-26T17:27:37;0.00;99.90
10530;DHT22;5313;48.834;9.228;2023-01-26T17:30:03;0.00;99.90